createdAt,value
2019-02-06T00:01:01.981Z,17.17
2019-02-06T00:03:35.801Z,12.90
2019-02-06T00:06:09.836Z,15.50
2019-02-06T00:08:43.281Z,13.87
2019-02-06T00:11:17.136Z,19.03
2019-02-06T00:13:50.863Z,9.97
2019-02-06T00:16:24.686Z,13.67
2019-02-06T00:18:58.459Z,15.83
2019-02-06T00:21:32.195Z,14.03
2019-02-06T00:24:05.865Z,11.77
2019-02-06T00:26:39.575Z,15.20
2019-02-06T00:29:13.981Z,12.43
2019-02-06T00:31:47.781Z,12.57
2019-02-06T00:34:21.496Z,14.37
2019-02-06T00:36:55.388Z,11.73
2019-02-06T00:39:29.293Z,11.00
2019-02-06T00:42:03.934Z,10.23
2019-02-06T00:44:37.741Z,10.23
2019-02-06T00:47:12.512Z,8.83
2019-02-06T00:49:46.157Z,10.60
2019-02-06T00:52:19.779Z,9.70
2019-02-06T00:54:53.460Z,9.07
2019-02-06T00:57:27.284Z,11.93
2019-02-06T01:00:01.884Z,11.97
2019-02-06T01:02:36.489Z,11.77
2019-02-06T01:05:11.047Z,12.50
2019-02-06T01:07:44.769Z,9.80
2019-02-06T01:10:19.374Z,10.33
2019-02-06T01:12:53.196Z,13.37
2019-02-06T01:15:27.160Z,13.33
2019-02-06T01:18:00.965Z,12.40
2019-02-06T01:20:34.752Z,16.93
2019-02-06T01:23:08.496Z,19.07
2019-02-06T01:25:43.167Z,14.80
2019-02-06T01:28:16.849Z,14.43
2019-02-06T01:30:51.675Z,14.73
2019-02-06T01:33:26.102Z,14.20
2019-02-06T01:36:00.604Z,19.17
2019-02-06T01:38:34.332Z,10.80
2019-02-06T01:41:08.049Z,13.93
2019-02-06T01:43:41.967Z,12.57
2019-02-06T01:46:15.724Z,18.77
2019-02-06T01:48:49.456Z,19.10
2019-02-06T01:51:23.250Z,14.70
2019-02-06T01:53:57.123Z,20.13
2019-02-06T01:56:30.807Z,12.77
2019-02-06T01:59:05.452Z,19.20
2019-02-06T02:01:39.173Z,14.73
2019-02-06T02:04:12.880Z,15.77
2019-02-06T02:06:46.630Z,17.67
2019-02-06T02:09:20.462Z,10.80
2019-02-06T02:11:54.380Z,13.37
2019-02-06T02:14:29.065Z,11.17
2019-02-06T02:17:03.651Z,9.70
2019-02-06T02:19:37.678Z,10.13
2019-02-06T02:22:11.449Z,13.57
2019-02-06T02:24:45.196Z,9.97
2019-02-06T02:27:18.872Z,9.20
2019-02-06T02:29:52.734Z,8.33
2019-02-06T02:32:26.600Z,8.27
2019-02-06T02:35:00.318Z,10.67
2019-02-06T02:37:33.916Z,8.33
2019-02-06T02:40:07.609Z,8.93
2019-02-06T02:42:41.336Z,9.77
2019-02-06T02:45:15.088Z,8.33
2019-02-06T02:47:48.977Z,11.20
2019-02-06T02:50:23.637Z,9.03
2019-02-06T02:52:57.453Z,10.17
2019-02-06T02:55:31.318Z,6.73
2019-02-06T02:58:05.153Z,8.13
2019-02-06T03:00:39.012Z,6.23
2019-02-06T03:03:13.708Z,6.53
2019-02-06T03:05:47.488Z,8.53
2019-02-06T03:08:21.190Z,7.20
2019-02-06T03:10:54.874Z,7.90
2019-02-06T03:13:28.688Z,10.03
2019-02-06T03:16:02.584Z,5.70
2019-02-06T03:18:37.256Z,9.63
2019-02-06T03:21:11.899Z,8.03
2019-02-06T03:23:45.613Z,9.17
2019-02-06T03:26:19.472Z,6.93
2019-02-06T03:28:53.917Z,6.83
2019-02-06T03:31:28.461Z,8.37
2019-02-06T03:34:04.851Z,9.27
2019-02-06T03:36:40.306Z,8.27
2019-02-06T03:39:10.084Z,7.37
2019-02-06T03:41:43.717Z,5.53
2019-02-06T03:44:17.485Z,7.03
2019-02-06T03:46:51.427Z,7.20
2019-02-06T03:49:25.815Z,8.93
2019-02-06T03:51:59.526Z,8.80
2019-02-06T03:54:33.421Z,9.37
2019-02-06T03:57:07.916Z,9.37
2019-02-06T03:59:41.714Z,8.50
2019-02-06T04:02:15.448Z,9.50
2019-02-06T04:04:49.276Z,11.30
2019-02-06T04:07:23.806Z,7.90
2019-02-06T04:09:57.625Z,8.10
2019-02-06T04:12:31.310Z,9.67
2019-02-06T04:15:05.241Z,7.77
2019-02-06T04:17:39.140Z,12.63
2019-02-06T04:20:12.810Z,7.83
2019-02-06T04:22:46.665Z,8.27
2019-02-06T04:25:20.365Z,12.90
2019-02-06T04:27:54.315Z,10.17
2019-02-06T04:30:28.258Z,7.80
2019-02-06T04:33:02.857Z,12.93
2019-02-06T04:35:36.658Z,8.27
2019-02-06T04:38:10.540Z,10.07
2019-02-06T04:40:44.400Z,7.20
2019-02-06T04:43:18.148Z,14.50
2019-02-06T04:45:52.841Z,11.63
2019-02-06T04:48:27.353Z,11.70
2019-02-06T04:51:01.126Z,12.17
2019-02-06T04:53:35.605Z,12.13
2019-02-06T04:56:09.303Z,13.90
2019-02-06T04:58:44.028Z,10.87
2019-02-06T05:01:17.828Z,10.67
2019-02-06T05:03:51.773Z,15.27
2019-02-06T05:06:25.501Z,15.13
2019-02-06T05:08:59.226Z,10.90
2019-02-06T05:11:33.059Z,15.50
2019-02-06T05:14:07.567Z,15.50
2019-02-06T05:16:41.283Z,11.67
2019-02-06T05:19:15.986Z,11.07
2019-02-06T05:21:49.716Z,17.10
2019-02-06T05:24:23.457Z,13.67
2019-02-06T05:26:57.267Z,12.43
2019-02-06T05:29:31.033Z,10.53
2019-02-06T05:32:04.738Z,12.43
2019-02-06T05:34:38.496Z,16.13
2019-02-06T05:37:12.259Z,14.03
2019-02-06T05:39:46.091Z,15.77
2019-02-06T05:42:19.950Z,12.30
2019-02-06T05:44:53.666Z,17.33
2019-02-06T05:47:27.653Z,13.97
2019-02-06T05:50:02.275Z,13.20
2019-02-06T05:52:36.116Z,15.13
2019-02-06T05:55:10.001Z,13.57
2019-02-06T05:57:43.959Z,16.77
2019-02-06T06:00:18.454Z,13.30
2019-02-06T06:02:52.277Z,15.53
2019-02-06T06:05:26.042Z,13.23
2019-02-06T06:08:00.590Z,17.97
2019-02-06T06:10:34.334Z,16.83
2019-02-06T06:13:08.992Z,12.00
2019-02-06T06:15:42.749Z,14.10
2019-02-06T06:18:16.385Z,11.57
2019-02-06T06:20:50.129Z,11.87
2019-02-06T06:23:23.829Z,14.87
2019-02-06T06:25:57.638Z,13.40
2019-02-06T06:28:31.646Z,13.43
2019-02-06T06:31:05.553Z,18.27
2019-02-06T06:33:39.288Z,12.43
2019-02-06T06:36:13.205Z,17.77
2019-02-06T06:38:47.049Z,13.07
2019-02-06T06:41:21.602Z,18.50
2019-02-06T06:43:55.301Z,15.47
2019-02-06T18:02:32.141Z,24.43
2019-02-06T18:05:05.947Z,27.23
2019-02-06T18:07:39.684Z,24.50
2019-02-06T18:10:14.720Z,29.37
2019-02-06T18:12:48.564Z,25.07
2019-02-06T18:15:23.056Z,27.00
2019-02-06T18:17:58.301Z,33.17
2019-02-06T18:20:32.101Z,24.83
2019-02-06T18:23:05.716Z,23.73
2019-02-06T18:25:39.316Z,25.60
2019-02-06T18:28:12.912Z,29.20
2019-02-06T18:30:47.332Z,22.80
2019-02-06T18:33:21.109Z,27.17
2019-02-06T18:35:54.764Z,24.70
2019-02-06T18:38:29.252Z,25.27
2019-02-06T18:41:02.948Z,26.33
2019-02-06T18:43:37.388Z,27.33
2019-02-06T18:46:11.108Z,30.10
2019-02-06T18:48:44.800Z,28.13
2019-02-06T18:51:18.416Z,31.00
2019-02-06T18:53:52.190Z,30.00
2019-02-06T18:56:25.876Z,30.83
2019-02-06T18:59:00.412Z,31.50
2019-02-06T19:01:34.140Z,31.97
2019-02-06T19:04:07.883Z,36.67
2019-02-06T19:06:41.424Z,28.90
2019-02-06T19:09:15.099Z,31.53
2019-02-06T19:11:48.728Z,31.13
2019-02-06T19:14:22.364Z,27.30
2019-02-06T19:16:56.156Z,33.10
2019-02-06T19:19:30.672Z,29.50
2019-02-06T19:22:05.193Z,36.83
2019-02-06T19:24:39.711Z,32.07
2019-02-06T19:27:14.606Z,30.67
2019-02-06T19:29:48.140Z,29.60
2019-02-06T19:32:21.816Z,27.47
2019-02-06T19:34:55.528Z,26.37
2019-02-06T19:37:29.172Z,33.03
2019-02-06T19:40:03.680Z,32.17
2019-02-06T19:42:37.408Z,26.03
2019-02-06T19:45:13.940Z,27.53
2019-02-06T19:47:47.733Z,33.37
2019-02-06T19:50:28.645Z,35.70
2019-02-06T19:53:03.084Z,27.93
2019-02-06T19:55:36.948Z,34.13
2019-02-06T19:58:10.792Z,37.97
2019-02-06T20:00:44.410Z,35.60
2019-02-06T20:03:18.053Z,31.60
2019-02-06T20:05:51.853Z,32.20
2019-02-06T20:08:26.347Z,32.13
2019-02-06T20:11:00.084Z,29.07
2019-02-06T20:13:34.640Z,29.20
2019-02-06T20:16:09.098Z,25.53
2019-02-06T20:18:43.604Z,28.80
2019-02-06T20:21:17.337Z,28.80
2019-02-06T20:23:51.039Z,31.10
2019-02-06T20:26:24.797Z,30.70
2019-02-06T20:28:58.529Z,34.07
2019-02-06T20:31:32.361Z,30.33
2019-02-06T20:34:06.074Z,25.47
2019-02-06T20:36:40.556Z,30.93
2019-02-06T20:39:14.244Z,30.47
2019-02-06T20:41:47.961Z,31.37
2019-02-06T20:44:21.904Z,27.93
2019-02-06T20:46:55.998Z,29.57
2019-02-06T20:49:29.612Z,31.50
2019-02-06T20:52:03.348Z,28.93
2019-02-06T20:54:37.177Z,34.30
2019-02-06T20:57:15.352Z,31.80
2019-02-06T20:59:45.552Z,41.00
2019-02-06T21:02:19.436Z,49.30
2019-02-06T21:04:53.396Z,41.80
2019-02-06T21:07:27.978Z,56.93
2019-02-06T21:10:01.664Z,50.07
2019-02-06T21:12:35.432Z,44.93
2019-02-06T21:15:09.249Z,45.03
2019-02-06T21:17:42.897Z,48.80
2019-02-06T21:20:19.064Z,39.03
2019-02-06T21:22:52.905Z,37.33
2019-02-06T21:25:26.570Z,53.53
2019-02-06T21:28:00.208Z,41.30
2019-02-06T21:30:37.685Z,47.77
2019-02-06T21:33:11.340Z,38.33
2019-02-06T21:35:45.269Z,46.70
2019-02-06T21:38:19.899Z,34.67
2019-02-06T21:40:53.576Z,38.97
2019-02-06T21:43:27.408Z,34.87
2019-02-06T21:46:01.300Z,34.00
2019-02-06T21:48:35.120Z,32.63
2019-02-06T21:51:09.753Z,31.60
2019-02-06T21:53:43.500Z,30.73
2019-02-06T21:56:17.308Z,29.93
2019-02-06T21:58:51.188Z,36.40
2019-02-06T22:01:24.910Z,25.57
2019-02-06T22:03:58.609Z,25.47
2019-02-06T22:06:33.214Z,25.10
2019-02-06T22:09:06.909Z,26.57
2019-02-06T22:11:40.674Z,29.93
2019-02-06T22:14:14.341Z,22.20
2019-02-06T22:16:48.124Z,28.10
2019-02-06T22:19:21.844Z,27.00
2019-02-06T22:21:55.745Z,29.23
2019-02-06T22:24:29.508Z,32.77
2019-02-06T22:27:03.300Z,30.70
2019-02-06T22:29:37.089Z,28.23
2019-02-06T22:32:11.568Z,25.73
2019-02-06T22:34:45.349Z,25.20
2019-02-06T22:37:18.989Z,29.93
2019-02-06T22:39:52.881Z,27.77
2019-02-06T22:42:26.648Z,29.27
2019-02-06T22:45:00.414Z,32.83
2019-02-06T22:47:34.085Z,31.00
2019-02-06T22:50:08.716Z,26.93
2019-02-06T22:52:42.420Z,27.97
2019-02-06T22:55:16.160Z,30.70
2019-02-06T22:57:49.882Z,29.73
2019-02-06T23:00:40.478Z,27.13
2019-02-06T23:03:14.061Z,27.50
2019-02-06T23:05:47.740Z,34.17
2019-02-06T23:08:21.370Z,29.07
2019-02-06T23:10:55.209Z,30.03
2019-02-06T23:13:28.960Z,30.47
2019-02-06T23:16:02.841Z,29.33
2019-02-06T23:18:37.389Z,25.97
2019-02-06T23:21:12.025Z,30.60
2019-02-06T23:23:45.724Z,29.00
2019-02-06T23:26:19.586Z,31.77
2019-02-06T23:28:53.312Z,33.07
2019-02-06T23:31:27.148Z,26.40
2019-02-06T23:34:00.825Z,28.53
2019-02-06T23:36:34.620Z,24.00
2019-02-06T23:39:12.457Z,29.47
2019-02-06T23:41:46.380Z,27.53
2019-02-06T23:44:28.533Z,30.90
2019-02-06T23:46:56.201Z,27.43
2019-02-06T23:49:28.389Z,26.07
2019-02-06T23:52:02.252Z,23.30
2019-02-06T23:54:35.924Z,26.23
2019-02-06T23:57:09.623Z,31.37
2019-02-06T23:59:44.136Z,27.00
